• Join FlightAware (Why Join?)
  • Login
  • US Flag 
02:32AM EST


 

Airport Tracker/Info


-or-


 

Live Flight TrackerFlight Track Log ✈ FLG3651 ✈ 14-Apr-2013 ✈ KCVG - KPHL

Flight Track Log - Related Links

Times and Time Zones

All times are in EDT time to prevent confusion due to time zone crossing. See the FLG3651 flight status page for this flight to view local times or setup timezone preferences in your user account.

Time Position Orientation Groundspeed Altitude Reporting Facility
EDT Latitude Longitude Course Direction KTS MPH feet Rate Location/Type
11:40AM 39.0500 -84.6667 113° Southeast 147 169 1,300  Level Cincinnati TRACON
11:41AM 39.0333 -84.6167 113° Southeast 193 222 2,500 1,737 Climbing Cincinnati TRACON
11:42AM 39.0500 -84.5500 72° East 236 272 4,600 2,254 Climbing Cincinnati TRACON
11:44AM 39.0978 -84.3436 73° East 285 328 9,900 2,050 Climbing Indianapolis Center
11:45AM 39.1264 -84.2342 71° East 314 361 11,400 1,403 Climbing Indianapolis Center
11:46AM 39.1633 -84.0839 72° East 373 429 12,800 1,452 Climbing Indianapolis Center
11:47AM 39.2003 -83.9469 71° East 398 458 14,400 1,707 Climbing Indianapolis Center
11:48AM 39.2506 -83.8158 64° Northeast 406 467 16,300 1,756 Climbing Indianapolis Center
11:49AM 39.3006 -83.6844 64° Northeast 406 467 18,000 1,548 Climbing Indianapolis Center
11:50AM 39.3494 -83.5525 64° Northeast 405 466 19,500 1,452 Climbing Indianapolis Center
11:51AM 39.4003 -83.4197 64° Northeast 410 472 21,000 1,415 Climbing Indianapolis Center
11:52AM 39.4506 -83.2869 64° Northeast 410 472 22,400 1,268 Climbing Indianapolis Center
11:53AM 39.5086 -83.1308 64° Northeast 413 475 23,600 1,065 Climbing Indianapolis Center
11:54AM 39.5600 -82.9944 64° Northeast 419 482 24,600 968 Climbing Indianapolis Center
11:55AM 39.6081 -82.8547 66° East 422 486 25,600 829 Climbing Indianapolis Center
11:57AM 39.6214 -82.6969 84° East 437 503 26,300 683 Climbing Indianapolis Center
11:58AM 39.6336 -82.5375 84° East 441 507 27,000 339 Climbing Indianapolis Center
11:59AM 39.6467 -82.3708 84° East 458 527 27,000  Level Indianapolis Center
12:00PM 39.6600 -82.1986 84° East 473 544 27,000  Level Indianapolis Center
12:01PM 39.6747 -82.0042 84° East 485 558 27,000  Level Indianapolis Center
12:02PM 39.6872 -81.8283 85° East 488 562 27,000  Level Indianapolis Center
12:03PM 39.7061 -81.6058 84° East 483 556 27,000  Level Cleveland Center
12:04PM 39.7158 -81.4331 86° East 478 550 27,000  Level Cleveland Center
12:05PM 39.7483 -81.2633 76° East 478 550 27,000  Level Cleveland Center
12:06PM 39.7806 -81.0936 76° East 483 556 27,000  Level Cleveland Center
12:07PM 39.8122 -80.9264 76° East 483 556 27,000  Level Cleveland Center
12:08PM 39.8461 -80.7614 75° East 478 550 27,000  Level Cleveland Center
12:09PM 39.8794 -80.5911 76° East 478 550 27,000  Level Cleveland Center
12:10PM 39.9108 -80.4206 76° East 473 544 27,000  Level Cleveland Center
12:11PM 39.9500 -80.2581 72° East 473 544 27,000  Level Cleveland Center
12:12PM 39.9911 -80.1089 70° East 478 550 27,000  Level Cleveland Center
12:13PM 40.0342 -79.9431 71° East 478 550 27,000  Level Cleveland Center
12:14PM 40.0789 -79.7800 70° East 483 556 27,000  Level Cleveland Center
12:15PM 40.1067 -79.6058 78° East 483 556 27,000  Level Cleveland Center
12:16PM 40.1281 -79.4319 81° East 483 556 27,000  Level Cleveland Center
12:17PM 40.1511 -79.2439 81° East 483 556 27,000  Level Cleveland Center
12:18PM 40.1739 -79.0669 80° East 483 556 27,000 -50 Level Cleveland Center
12:19PM 40.1983 -78.8897 80° East 488 562 26,900 -550 Descending Cleveland Center
12:20PM 40.2186 -78.7153 81° East 488 562 25,900 -633 Descending Cleveland Center
12:22PM 40.2628 -78.3819 80° East 486 559 25,000 -237 Descending Cleveland Center
12:24PM 40.3008 -78.0653 81° East 485 558 25,000  Level New York Center
12:25PM 40.3117 -77.8867 85° East 485 558 25,000 -50 Level New York Center
12:26PM 40.3119 -77.7069 90° East 490 564 24,900 -908 Descending New York Center
12:27PM 40.2900 -77.5117 98° East 490 564 23,200 -1,513 Descending New York Center
12:28PM 40.2736 -77.3575 98° East 485 558 21,900 -1,450 Descending New York Center
12:29PM 40.2522 -77.1786 99° East 467 537 20,300 -1,462 Descending New York Center
12:30PM 40.2342 -77.0111 98° East 462 532 19,000 -1,200 Descending New York Center
12:31PM 40.2153 -76.8517 99° East 452 520 17,900 -1,200 Descending New York Center
12:32PM 40.1964 -76.6897 99° East 447 514 16,600 -1,350 Descending New York Center
12:33PM 40.1803 -76.5525 99° East 442 509 15,200 -1,400 Descending New York Center
12:34PM 40.1625 -76.4014 99° East 425 489 13,800 -1,655 Descending New York Center
12:34PM 40.1519 -76.3164 99° East 410 472 12,800 -1,787 Descending FAA TRACON SMA TRACON (SMA)
12:34PM 40.1467 -76.2700 98° East 409 471 12,400 -1,350 Descending FAA TRACON SMA TRACON (SMA)
12:35PM 40.1411 -76.2258 99° East 404 465 11,900 -1,317 Descending FAA TRACON SMA TRACON (SMA)
12:35PM 40.1344 -76.1739 100° East 393 452 11,500 -1,171 Descending FAA TRACON SMA TRACON (SMA)
12:35PM 40.1306 -76.1339 97° East 367 422 11,100 -1,050 Descending FAA TRACON SMA TRACON (SMA)
12:36PM 40.1258 -76.0967 99° East 349 402 10,800 -1,200 Descending FAA TRACON SMA TRACON (SMA)
12:36PM 40.1194 -76.0481 100° East 345 397 10,300 -1,350 Descending FAA TRACON SMA TRACON (SMA)
12:36PM 40.1142 -76.0103 100° East 346 398 9,900 -1,200 Descending FAA TRACON SMA TRACON (SMA)
12:37PM 40.1094 -75.9722 99° East 345 397 9,500 -1,200 Descending FAA TRACON SMA TRACON (SMA)
12:37PM 40.1042 -75.9242 98° East 346 398 9,100 -1,200 Descending FAA TRACON SMA TRACON (SMA)
12:37PM 40.0994 -75.8867 99° East 347 399 8,700 -1,200 Descending FAA TRACON SMA TRACON (SMA)
12:38PM 40.0953 -75.8467 98° East 347 399 8,300 -1,050 Descending FAA TRACON SMA TRACON (SMA)
12:38PM 40.0881 -75.8017 102° East 338 389 8,000 -450 Descending FAA TRACON SMA TRACON (SMA)
12:38PM 40.0839 -75.7647 98° East 335 386 8,000  Level FAA TRACON SMA TRACON (SMA)
12:39PM 40.0808 -75.7303 97° East 333 383 8,000  Level FAA TRACON SMA TRACON (SMA)
12:39PM 40.0792 -75.6908 93° East 339 390 8,000  Level FAA TRACON SMA TRACON (SMA)
12:39PM 40.0778 -75.6428 92° East 335 386 8,000  Level FAA TRACON SMA TRACON (SMA)
12:40PM 40.0758 -75.6083 94° East 338 389 8,000  Level FAA TRACON SMA TRACON (SMA)
12:40PM 40.0736 -75.5678 94° East 339 390 8,000 -450 Level FAA TRACON SMA TRACON (SMA)
12:40PM 40.0717 -75.5206 93° East 338 389 7,700 -900 Descending FAA TRACON SMA TRACON (SMA)
12:41PM 40.0703 -75.4881 93° East 330 380 7,400 -1,050 Descending FAA TRACON SMA TRACON (SMA)
12:41PM 40.0681 -75.4394 93° East 330 380 7,000 -1,200 Descending FAA TRACON SMA TRACON (SMA)
12:41PM 40.0658 -75.4017 94° East 330 380 6,600 -1,050 Descending FAA TRACON SMA TRACON (SMA)
12:42PM 40.0647 -75.3697 93° East 313 360 6,300 -900 Descending FAA TRACON SMA TRACON (SMA)
12:42PM 40.0625 -75.3328 94° East 297 342 6,000 -450 Descending FAA TRACON SMA TRACON (SMA)
12:42PM 40.0603 -75.2939 94° East 284 327 6,000  Level FAA TRACON SMA TRACON (SMA)
12:43PM 40.0597 -75.2650 91° East 284 327 6,000  Level FAA TRACON SMA TRACON (SMA)
12:43PM 40.0533 -75.2300 103° East 298 343 6,000 -150 Level FAA TRACON SMA TRACON (SMA)
12:43PM 40.0444 -75.1964 109° East 259 298 5,900  Descending FAA TRACON SMA TRACON (SMA)
12:44PM 40.0372 -75.1719 111° Southeast 254 292 6,000 150 Climbing FAA TRACON SMA TRACON (SMA)
12:44PM 40.0294 -75.1408 108° East 256 295 6,000  Level FAA TRACON SMA TRACON (SMA)
12:44PM 40.0225 -75.1139 109° East 254 292 6,000  Level FAA TRACON SMA TRACON (SMA)
12:45PM 40.0142 -75.0814 109° East 244 281 6,000  Level FAA TRACON SMA TRACON (SMA)
12:45PM 40.0136 -75.0550 92° East 233 268 6,000  Level FAA TRACON SMA TRACON (SMA)
12:45PM 40.0125 -75.0333 94° East 217 250 6,000  Level FAA TRACON SMA TRACON (SMA)
12:46PM 40.0108 -75.0008 94° East 227 261 6,000  Level FAA TRACON SMA TRACON (SMA)
12:46PM 40.0100 -74.9719 92° East 233 268 6,000  Level FAA TRACON SMA TRACON (SMA)
12:46PM 40.0086 -74.9461 94° East 237 273 6,000 -600 Level FAA TRACON SMA TRACON (SMA)
12:47PM 39.9936 -74.9206 127° Southeast 257 296 5,600 -1,050 Descending FAA TRACON SMA TRACON (SMA)
12:47PM 39.9728 -74.9136 166° South 208 239 5,300 -900 Descending FAA TRACON SMA TRACON (SMA)
12:47PM 39.9586 -74.9217 204° Southwest 201 231 5,000 -700 Descending FAA TRACON SMA TRACON (SMA)
12:48PM 39.9342 -74.9517 223° Southwest 169 194 4,600 -600 Descending FAA TRACON SMA TRACON (SMA)
12:48PM 39.9275 -74.9692 244° Southwest 169 194 4,400 -900 Descending FAA TRACON SMA TRACON (SMA)
12:49PM 39.9211 -74.9919 250° West 173 199 4,000 -900 Descending FAA TRACON SMA TRACON (SMA)
12:49PM 39.9181 -75.0111 258° West 176 203 3,800 -750 Descending FAA TRACON SMA TRACON (SMA)
12:49PM 39.9139 -75.0306 254° West 175 201 3,500 -1,050 Descending FAA TRACON SMA TRACON (SMA)
12:50PM 39.9086 -75.0539 254° West 176 203 3,100 -1,050 Descending FAA TRACON SMA TRACON (SMA)
12:50PM 39.9047 -75.0728 255° West 176 203 2,800 -900 Descending FAA TRACON SMA TRACON (SMA)
12:50PM 39.9014 -75.0919 257° West 175 201 2,500 -1,200 Descending FAA TRACON SMA TRACON (SMA)
12:51PM 39.8967 -75.1158 256° West 177 204 2,000 -1,350 Descending FAA TRACON SMA TRACON (SMA)
12:51PM 39.8931 -75.1342 256° West 176 203 1,600 -1,050 Descending FAA TRACON SMA TRACON (SMA)
12:51PM 39.8894 -75.1511 254° West 154 177 1,300 -900 Descending FAA TRACON SMA TRACON (SMA)
12:52PM 39.8861 -75.1686 256° West 140 161 1,000 -750 Descending FAA TRACON SMA TRACON (SMA)
12:52PM 39.8831 -75.1822 254° West 147 169 800 -750 Descending FAA TRACON SMA TRACON (SMA)
12:52PM 39.8806 -75.1961 257° West 129 148 500 -750 Descending FAA TRACON SMA TRACON (SMA)
12:53PM 39.8775 -75.2131 257° West 126 145 300 -450 Descending FAA TRACON SMA TRACON (SMA)
12:53PM 39.8767 -75.2164 252° West 124 143 200 -300 Descending FAA TRACON SMA TRACON (SMA)